createdAt,value
2018-10-06T00:01:30.955Z,9.00
2018-10-06T00:04:05.728Z,9.00
2018-10-06T00:06:42.440Z,9.10
2018-10-06T00:09:17.006Z,9.20
2018-10-06T00:11:51.722Z,9.20
2018-10-06T00:14:26.249Z,9.00
2018-10-06T00:17:01.186Z,9.10
2018-10-06T00:19:35.639Z,9.10
2018-10-06T00:22:11.124Z,9.10
2018-10-06T00:24:45.830Z,9.00
2018-10-06T00:27:20.513Z,8.90
2018-10-06T00:30:01.412Z,8.90
2018-10-06T00:32:36.523Z,8.80
2018-10-06T00:35:16.187Z,8.70
2018-10-06T00:37:51.065Z,8.90
2018-10-06T00:40:29.764Z,8.80
2018-10-06T00:43:21.024Z,8.70
2018-10-06T00:46:07.928Z,8.70
2018-10-06T00:48:51.744Z,8.60
2018-10-06T00:51:57.617Z,8.60
2018-10-06T00:55:02.885Z,8.70
2018-10-06T00:58:02.155Z,8.80
2018-10-06T01:01:12.941Z,8.80
2018-10-06T01:04:16.455Z,8.80
2018-10-06T01:07:05.839Z,8.70
2018-10-06T01:09:45.911Z,8.70
2018-10-06T01:12:42.290Z,8.70
2018-10-06T01:15:46.358Z,8.70
2018-10-06T01:18:50.851Z,8.80
2018-10-06T01:21:37.654Z,8.60
2018-10-06T01:24:17.062Z,8.30
2018-10-06T01:27:07.799Z,8.20
2018-10-06T01:33:11.289Z,8.10
2018-10-06T01:36:14.708Z,8.20
2018-10-06T01:38:55.678Z,8.20
2018-10-06T01:41:42.676Z,8.20
2018-10-06T01:44:22.426Z,8.20
2018-10-06T01:47:24.146Z,8.30
2018-10-06T01:50:06.485Z,8.30
2018-10-06T01:53:11.578Z,8.40
2018-10-06T01:56:10.261Z,8.50
2018-10-06T02:02:29.865Z,8.50
2018-10-06T02:08:17.689Z,8.30
2018-10-06T02:11:08.647Z,8.40
2018-10-06T02:14:16.477Z,8.40
2018-10-06T02:17:15.326Z,8.20
2018-10-06T02:19:49.977Z,8.30
2018-10-06T02:22:57.118Z,8.30
2018-10-06T02:29:20.642Z,8.30
2018-10-06T02:32:13.568Z,8.20
2018-10-06T02:35:09.125Z,8.10
2018-10-06T02:38:10.313Z,8.00
2018-10-06T02:41:09.102Z,7.90
2018-10-06T02:44:09.887Z,7.90
2018-10-06T02:46:53.420Z,7.90
2018-10-06T02:49:29.825Z,7.90
2018-10-06T02:55:19.177Z,8.00
2018-10-06T02:58:21.802Z,8.00
2018-10-06T03:01:24.232Z,8.00
2018-10-06T03:04:39.564Z,8.00
2018-10-06T03:10:34.337Z,7.80
2018-10-06T03:16:21.190Z,7.60
2018-10-06T03:22:09.061Z,7.60
2018-10-06T03:25:09.964Z,7.70
2018-10-06T03:27:52.130Z,7.70
2018-10-06T03:30:57.365Z,7.70
2018-10-06T03:33:59.614Z,7.80
2018-10-06T03:36:47.277Z,7.70
2018-10-06T03:39:52.161Z,7.60
2018-10-06T03:42:45.257Z,7.50
2018-10-06T03:45:40.567Z,7.50
2018-10-06T03:48:28.858Z,7.50
2018-10-06T03:51:29.059Z,7.50
2018-10-06T03:54:35.300Z,7.50
2018-10-06T03:57:41.588Z,7.50
2018-10-06T04:00:42.860Z,7.50
2018-10-06T04:03:51.300Z,7.50
2018-10-06T04:09:53.041Z,7.30
2018-10-06T04:12:28.014Z,7.40
2018-10-06T04:15:03.838Z,7.40
2018-10-06T04:17:40.231Z,7.30
2018-10-06T04:20:15.562Z,7.20
2018-10-06T04:22:50.786Z,7.20
2018-10-06T04:25:25.603Z,7.30
2018-10-06T04:28:01.816Z,7.40
2018-10-06T04:30:37.755Z,7.30
2018-10-06T04:33:14.203Z,7.20
2018-10-06T04:35:49.267Z,7.20
2018-10-06T04:38:24.761Z,7.10
2018-10-06T04:41:00.013Z,7.10
2018-10-06T04:43:36.170Z,7.10
2018-10-06T04:46:12.891Z,7.20
2018-10-06T04:48:47.750Z,7.10
2018-10-06T04:51:23.608Z,7.00
2018-10-06T04:53:58.734Z,6.90
2018-10-06T04:56:34.329Z,6.90
2018-10-06T04:59:11.471Z,6.90
2018-10-06T05:01:46.576Z,6.90
2018-10-06T05:04:21.880Z,6.90
2018-10-06T05:06:57.487Z,6.80
2018-10-06T05:09:32.580Z,6.70
2018-10-06T05:12:35.184Z,6.90
2018-10-06T05:15:10.839Z,6.80
2018-10-06T05:18:02.595Z,6.80
2018-10-06T05:20:38.168Z,6.70
2018-10-06T05:23:13.517Z,6.80
2018-10-06T05:25:49.551Z,6.80
2018-10-06T05:28:24.655Z,6.80
2018-10-06T05:33:40.283Z,6.70
2018-10-06T05:36:15.691Z,6.60
2018-10-06T05:38:50.915Z,6.50
2018-10-06T05:41:25.990Z,6.50
2018-10-06T05:44:01.069Z,6.40
2018-10-06T05:46:37.337Z,6.60
2018-10-06T05:49:13.045Z,6.60
2018-10-06T05:51:48.722Z,6.70
2018-10-06T05:54:24.251Z,6.80
2018-10-06T05:56:59.613Z,6.90
2018-10-06T05:59:36.707Z,7.10
2018-10-06T06:02:12.926Z,7.10
2018-10-06T06:04:47.884Z,7.20
2018-10-06T06:07:23.566Z,7.20
2018-10-06T06:09:58.862Z,7.20
2018-10-06T06:12:42.876Z,7.30
2018-10-06T06:15:20.935Z,7.30
2018-10-06T06:17:56.121Z,7.40
2018-10-06T06:20:36.259Z,7.40
2018-10-06T06:23:12.260Z,7.40
2018-10-06T06:25:48.392Z,7.50
2018-10-06T06:28:26.633Z,7.70
2018-10-06T06:31:06.907Z,7.90
2018-10-06T06:33:46.600Z,8.00
2018-10-06T06:36:34.124Z,8.10
2018-10-06T06:42:30.145Z,8.30
2018-10-06T06:48:24.461Z,8.50
2018-10-06T06:50:59.117Z,8.70
2018-10-06T06:53:34.742Z,8.90
2018-10-06T06:56:15.728Z,9.10
2018-10-06T06:58:50.804Z,9.30
2018-10-06T07:01:25.585Z,9.40
2018-10-06T07:04:00.485Z,9.60
2018-10-06T07:06:36.926Z,9.60
2018-10-06T07:09:11.190Z,9.80
2018-10-06T07:11:46.658Z,10.00
2018-10-06T07:14:21.911Z,10.20
2018-10-06T07:16:56.708Z,10.40
2018-10-06T07:19:31.662Z,10.60
2018-10-06T07:22:08.225Z,10.90
2018-10-06T07:24:44.500Z,11.10
2018-10-06T07:27:19.152Z,11.30
2018-10-06T07:29:54.211Z,11.60
2018-10-06T07:35:34.001Z,12.40
2018-10-06T07:38:19.934Z,13.10
2018-10-06T07:40:54.904Z,13.60
2018-10-06T07:43:31.384Z,13.80
2018-10-06T07:46:08.081Z,13.80
2018-10-06T07:48:42.349Z,13.80
2018-10-06T07:51:17.426Z,14.00
2018-10-06T07:53:52.470Z,14.20
2018-10-06T07:56:28.658Z,14.60
2018-10-06T07:59:05.843Z,15.40
2018-10-06T08:02:02.763Z,15.60
2018-10-06T08:04:38.085Z,15.60
2018-10-06T08:07:13.347Z,16.10
2018-10-06T08:09:48.561Z,16.20
2018-10-06T08:12:24.017Z,16.40
2018-10-06T08:15:28.139Z,16.50
2018-10-06T08:18:10.460Z,16.60
2018-10-06T08:20:50.407Z,17.00
2018-10-06T08:23:28.115Z,18.00
2018-10-06T08:26:17.658Z,18.90
2018-10-06T08:28:59.133Z,19.50
2018-10-06T08:31:37.023Z,19.80
2018-10-06T08:34:12.887Z,18.70
2018-10-06T08:36:48.298Z,18.30
2018-10-06T08:39:29.552Z,18.60
2018-10-06T08:42:05.443Z,18.80
2018-10-06T08:44:40.602Z,19.30
2018-10-06T08:47:16.173Z,20.40
2018-10-06T08:49:55.711Z,21.00
2018-10-06T08:52:32.159Z,21.00
2018-10-06T08:55:07.293Z,21.00
2018-10-06T08:57:42.522Z,21.50
2018-10-06T09:00:17.783Z,22.50
2018-10-06T09:06:10.376Z,22.60
2018-10-06T09:08:45.790Z,22.20
2018-10-06T09:24:31.024Z,20.20
2018-10-06T09:27:06.651Z,20.20
2018-10-06T09:29:42.381Z,20.20
2018-10-06T09:32:19.047Z,20.10
2018-10-06T09:34:54.432Z,19.80
2018-10-06T09:37:30.076Z,19.40
2018-10-06T09:40:05.489Z,18.80
2018-10-06T09:42:40.281Z,18.90
2018-10-06T09:45:18.574Z,19.10
2018-10-06T09:47:54.023Z,19.00
2018-10-06T09:50:30.075Z,19.00
2018-10-06T09:53:09.899Z,19.00
2018-10-06T09:55:46.591Z,19.10
2018-10-06T09:58:24.493Z,19.30
2018-10-06T10:01:07.475Z,19.60
2018-10-06T10:03:52.215Z,20.00
2018-10-06T10:06:34.056Z,20.30
2018-10-06T10:09:16.980Z,20.60
2018-10-06T10:11:58.366Z,20.90
2018-10-06T10:14:44.501Z,21.40
2018-10-06T10:17:20.343Z,21.70
2018-10-06T10:20:00.004Z,21.70
2018-10-06T10:22:43.972Z,21.70
2018-10-06T10:25:26.632Z,21.80
2018-10-06T10:28:12.556Z,21.60
2018-10-06T10:30:52.372Z,21.70
2018-10-06T10:33:38.525Z,22.00
2018-10-06T10:36:21.881Z,21.90
2018-10-06T10:39:05.794Z,21.70
2018-10-06T10:41:50.381Z,22.00
2018-10-06T10:44:29.848Z,22.20
2018-10-06T10:47:10.524Z,22.50
2018-10-06T10:49:49.683Z,23.00
2018-10-06T10:55:39.059Z,23.90
2018-10-06T11:01:07.121Z,24.40
2018-10-06T11:03:49.259Z,24.70
2018-10-06T11:09:32.559Z,24.70
2018-10-06T11:12:11.683Z,24.70
2018-10-06T11:14:49.326Z,24.70
2018-10-06T11:17:24.308Z,24.30
2018-10-06T11:20:03.706Z,24.40
2018-10-06T11:22:41.140Z,24.20
2018-10-06T11:25:22.972Z,23.90
2018-10-06T11:28:01.092Z,24.10
2018-10-06T11:30:40.223Z,24.30
2018-10-06T11:33:17.271Z,24.20
2018-10-06T11:35:52.811Z,24.30
2018-10-06T11:38:28.183Z,24.50
2018-10-06T11:43:44.359Z,24.80
2018-10-06T11:46:22.086Z,24.00
2018-10-06T11:48:58.623Z,24.10
2018-10-06T11:51:33.691Z,24.20
2018-10-06T11:54:19.252Z,24.30
2018-10-06T11:56:54.498Z,24.30
2018-10-06T11:59:30.693Z,24.20
2018-10-06T12:02:05.470Z,24.40
2018-10-06T12:04:40.260Z,24.60
2018-10-06T12:07:15.367Z,24.80
2018-10-06T12:09:50.439Z,24.70
2018-10-06T12:12:26.616Z,24.50
2018-10-06T12:15:01.372Z,24.30
2018-10-06T12:17:38.524Z,24.20
2018-10-06T12:20:13.373Z,24.20
2018-10-06T12:22:54.762Z,24.00
2018-10-06T12:25:32.448Z,23.70
2018-10-06T12:28:07.437Z,23.60
2018-10-06T12:30:42.638Z,23.60
2018-10-06T12:33:17.537Z,23.80
2018-10-06T12:35:52.606Z,24.00
2018-10-06T12:38:27.770Z,24.10
2018-10-06T12:41:02.603Z,23.80
2018-10-06T12:43:37.573Z,23.90
2018-10-06T12:46:12.767Z,24.60
2018-10-06T12:48:48.822Z,25.10
2018-10-06T12:51:24.298Z,25.90
2018-10-06T12:53:59.825Z,26.50
2018-10-06T12:56:34.975Z,26.70
2018-10-06T12:59:10.087Z,26.10
2018-10-06T13:01:47.429Z,25.90
2018-10-06T13:04:22.334Z,25.70
2018-10-06T13:06:57.212Z,26.20
2018-10-06T13:09:34.271Z,26.90
2018-10-06T13:12:15.188Z,27.10
2018-10-06T13:14:50.125Z,27.20
2018-10-06T13:17:25.254Z,27.30
2018-10-06T13:19:59.909Z,27.20
2018-10-06T13:22:34.719Z,28.10
2018-10-06T13:25:09.676Z,28.70
2018-10-06T13:27:44.399Z,28.90
2018-10-06T13:30:19.275Z,29.80
2018-10-06T13:32:54.085Z,29.70
2018-10-06T13:35:29.170Z,29.50
2018-10-06T13:38:04.320Z,29.60
2018-10-06T13:40:39.206Z,30.30
2018-10-06T13:43:14.251Z,29.10
2018-10-06T13:45:49.273Z,28.20
2018-10-06T13:48:24.175Z,27.20
2018-10-06T13:50:58.760Z,26.70
2018-10-06T13:53:33.651Z,26.60
2018-10-06T13:56:08.833Z,26.30
2018-10-06T13:58:43.459Z,26.50
2018-10-06T14:01:18.168Z,26.50
2018-10-06T14:03:53.243Z,26.50
2018-10-06T14:06:31.515Z,26.70
2018-10-06T14:09:06.645Z,26.50
2018-10-06T14:11:41.682Z,26.40
2018-10-06T14:14:16.151Z,26.30
2018-10-06T14:16:50.843Z,26.70
2018-10-06T14:19:25.699Z,26.60
2018-10-06T14:22:00.626Z,26.80
2018-10-06T14:24:35.694Z,27.10
2018-10-06T14:27:10.636Z,27.40
2018-10-06T14:29:45.667Z,28.10
2018-10-06T14:32:20.369Z,28.10
2018-10-06T14:34:55.055Z,27.60
2018-10-06T14:37:31.063Z,27.20
2018-10-06T14:40:05.768Z,26.90
2018-10-06T14:42:40.075Z,27.00
2018-10-06T14:45:15.242Z,26.60
2018-10-06T14:47:50.129Z,26.10
2018-10-06T14:50:24.903Z,25.90
2018-10-06T14:52:59.678Z,25.50
2018-10-06T14:55:35.127Z,25.50
2018-10-06T14:58:10.171Z,25.40
2018-10-06T15:00:45.037Z,25.20
2018-10-06T15:03:19.846Z,25.20
2018-10-06T15:05:54.371Z,25.10
2018-10-06T15:08:29.003Z,25.00
2018-10-06T15:11:03.787Z,24.90
2018-10-06T15:13:38.834Z,24.80
2018-10-06T15:16:15.035Z,24.50
2018-10-06T15:18:50.126Z,24.20
2018-10-06T15:21:25.291Z,23.90
2018-10-06T15:24:00.342Z,23.90
2018-10-06T15:26:35.301Z,24.00
2018-10-06T15:29:10.205Z,24.00
2018-10-06T15:31:46.188Z,23.90
2018-10-06T15:34:20.932Z,23.90
2018-10-06T15:36:55.914Z,23.90
2018-10-06T15:39:31.016Z,24.30
2018-10-06T15:42:05.950Z,24.60
2018-10-06T15:44:40.868Z,24.70
2018-10-06T15:47:15.751Z,24.70
2018-10-06T15:49:50.731Z,24.30
2018-10-06T15:52:25.261Z,24.00
2018-10-06T15:55:01.525Z,23.70
2018-10-06T15:57:36.423Z,23.60
2018-10-06T16:00:11.276Z,23.70
2018-10-06T16:02:46.313Z,23.70
2018-10-06T16:05:20.797Z,23.80
2018-10-06T16:07:55.831Z,23.60
2018-10-06T16:10:30.954Z,23.60
2018-10-06T16:13:05.206Z,23.40
2018-10-06T16:15:40.204Z,23.30
2018-10-06T16:18:16.640Z,23.00
2018-10-06T16:20:51.657Z,22.90
2018-10-06T16:23:26.473Z,22.80
2018-10-06T16:26:01.283Z,22.60
2018-10-06T16:28:36.315Z,22.50
2018-10-06T16:31:11.329Z,22.30
2018-10-06T16:33:45.974Z,22.30
2018-10-06T16:36:20.779Z,22.10
2018-10-06T16:38:55.616Z,22.10
2018-10-06T16:41:30.458Z,22.00
2018-10-06T16:44:05.493Z,21.70
2018-10-06T16:46:40.368Z,21.50
2018-10-06T16:49:15.183Z,21.30
2018-10-06T16:51:51.443Z,21.10
2018-10-06T16:54:26.057Z,20.90
2018-10-06T16:57:01.289Z,20.80
2018-10-06T16:59:36.189Z,20.60
2018-10-06T17:02:11.328Z,20.30
2018-10-06T17:04:46.222Z,20.20
2018-10-06T17:07:21.286Z,20.10
2018-10-06T17:09:55.950Z,20.00
2018-10-06T17:12:30.981Z,19.80
2018-10-06T17:15:12.485Z,19.70
2018-10-06T17:17:47.156Z,19.60
2018-10-06T17:20:21.978Z,19.40
2018-10-06T17:22:56.653Z,19.20
2018-10-06T17:25:31.330Z,18.90
2018-10-06T17:28:06.290Z,19.00
2018-10-06T17:30:41.188Z,18.90
2018-10-06T17:33:15.557Z,18.70
2018-10-06T17:35:50.136Z,18.40
2018-10-06T17:38:25.046Z,18.30
2018-10-06T17:41:01.037Z,18.20
2018-10-06T17:43:38.571Z,18.20
2018-10-06T17:46:18.863Z,18.20
2018-10-06T17:48:54.309Z,18.00
2018-10-06T17:51:28.900Z,17.90
2018-10-06T17:54:03.784Z,17.90
2018-10-06T17:56:38.520Z,17.70
2018-10-06T17:59:13.484Z,17.70
2018-10-06T18:01:48.326Z,17.70
2018-10-06T18:04:23.042Z,17.40
2018-10-06T18:06:58.016Z,17.20
2018-10-06T18:09:33.142Z,17.10
2018-10-06T18:12:08.207Z,17.00
2018-10-06T18:14:43.117Z,17.00
2018-10-06T18:17:18.043Z,16.90
2018-10-06T18:19:53.008Z,16.80
2018-10-06T18:22:27.862Z,16.70
2018-10-06T18:25:02.496Z,16.70
2018-10-06T18:27:37.494Z,16.50
2018-10-06T18:30:12.367Z,16.40
2018-10-06T18:32:47.023Z,16.40
2018-10-06T18:35:21.746Z,16.40
2018-10-06T18:37:56.513Z,16.30
2018-10-06T18:40:31.243Z,16.20
2018-10-06T18:43:06.431Z,16.30
2018-10-06T18:45:41.100Z,16.40
2018-10-06T18:48:15.834Z,16.40
2018-10-06T18:50:50.517Z,16.40
2018-10-06T18:53:25.257Z,16.40
2018-10-06T18:55:59.965Z,16.30
2018-10-06T18:58:38.611Z,16.30
2018-10-06T19:01:14.466Z,16.30
2018-10-06T19:03:50.096Z,16.30
2018-10-06T19:06:25.099Z,16.20
2018-10-06T19:08:59.879Z,16.30
2018-10-06T19:11:41.855Z,16.20
2018-10-06T19:14:18.796Z,16.10
2018-10-06T19:16:54.855Z,16.20
2018-10-06T19:19:29.711Z,16.20
2018-10-06T19:22:04.667Z,16.20
2018-10-06T19:24:41.039Z,16.00
2018-10-06T19:27:16.213Z,16.00
2018-10-06T19:29:52.923Z,16.10
2018-10-06T19:32:28.238Z,16.20
2018-10-06T19:38:20.609Z,16.20
2018-10-06T19:40:59.843Z,16.20
2018-10-06T19:43:35.068Z,16.20
2018-10-06T19:46:10.094Z,16.10
2018-10-06T19:48:45.616Z,16.00
2018-10-06T19:51:21.087Z,15.90
2018-10-06T19:53:57.412Z,15.90
2018-10-06T19:56:32.768Z,15.90
2018-10-06T19:59:08.053Z,16.00
2018-10-06T20:01:42.883Z,15.90
2018-10-06T20:04:17.912Z,15.80
2018-10-06T20:06:52.870Z,15.60
2018-10-06T20:09:29.943Z,15.60
2018-10-06T20:12:05.029Z,15.60
2018-10-06T20:14:42.793Z,15.60
2018-10-06T20:17:18.037Z,15.60
2018-10-06T20:19:53.369Z,15.60
2018-10-06T20:22:28.536Z,15.60
2018-10-06T20:25:05.134Z,15.70
2018-10-06T20:27:40.083Z,15.70
2018-10-06T20:30:15.500Z,15.70
2018-10-06T20:32:50.311Z,15.50
2018-10-06T20:35:25.481Z,15.30
2018-10-06T20:38:00.529Z,15.30
2018-10-06T20:40:35.391Z,15.30
2018-10-06T20:43:10.310Z,15.30
2018-10-06T20:45:47.133Z,15.30
2018-10-06T20:48:22.020Z,15.40
2018-10-06T20:50:56.758Z,15.40
2018-10-06T20:53:31.599Z,15.40
2018-10-06T20:56:07.021Z,15.30
2018-10-06T20:58:43.348Z,15.40
2018-10-06T21:01:18.248Z,15.20
2018-10-06T21:04:20.470Z,15.10
2018-10-06T21:10:16.061Z,14.90
2018-10-06T21:12:50.855Z,15.00
2018-10-06T21:15:25.937Z,14.90
2018-10-06T21:18:00.786Z,14.70
2018-10-06T21:20:35.890Z,14.50
2018-10-06T21:23:11.277Z,14.40
2018-10-06T21:25:46.292Z,14.40
2018-10-06T21:28:21.200Z,14.40
2018-10-06T21:30:56.323Z,14.40
2018-10-06T21:33:31.564Z,14.20
2018-10-06T21:36:06.721Z,14.30
2018-10-06T21:38:41.597Z,14.50
2018-10-06T21:41:16.169Z,14.40
2018-10-06T21:43:59.327Z,14.40
2018-10-06T21:46:34.377Z,14.40
2018-10-06T21:49:09.916Z,14.20
2018-10-06T21:51:45.018Z,14.20
2018-10-06T21:54:20.032Z,14.20
2018-10-06T21:56:55.371Z,14.20
2018-10-06T21:59:30.226Z,14.20
2018-10-06T22:02:11.990Z,14.20
2018-10-06T22:04:54.174Z,14.20
2018-10-06T22:07:34.203Z,14.00
2018-10-06T22:10:10.880Z,14.10
2018-10-06T22:12:46.530Z,14.10
2018-10-06T22:15:23.423Z,14.10
2018-10-06T22:18:01.006Z,14.00
2018-10-06T22:20:36.705Z,14.10
2018-10-06T22:23:13.045Z,14.10
2018-10-06T22:25:48.707Z,14.00
2018-10-06T22:28:25.667Z,13.90
2018-10-06T22:31:03.841Z,13.70
2018-10-06T22:33:39.900Z,13.70
2018-10-06T22:36:15.742Z,13.60
2018-10-06T22:38:51.216Z,13.50
2018-10-06T22:41:26.746Z,13.40
2018-10-06T22:44:06.236Z,13.40
2018-10-06T22:46:43.004Z,13.30
2018-10-06T22:49:17.814Z,13.30
2018-10-06T22:51:53.417Z,13.20
2018-10-06T22:54:28.694Z,13.10
2018-10-06T22:57:04.184Z,13.10
2018-10-06T22:59:39.836Z,13.00
2018-10-06T23:02:14.933Z,12.80
2018-10-06T23:04:51.092Z,12.80
2018-10-06T23:07:34.001Z,12.70
2018-10-06T23:10:09.590Z,12.50
2018-10-06T23:12:43.838Z,12.50
2018-10-06T23:15:19.050Z,12.60
2018-10-06T23:17:54.421Z,12.60
2018-10-06T23:20:29.724Z,12.60
2018-10-06T23:23:05.689Z,12.60
2018-10-06T23:25:41.325Z,12.40
2018-10-06T23:28:16.591Z,12.50
2018-10-06T23:33:35.160Z,12.40
2018-10-06T23:36:10.757Z,12.40
2018-10-06T23:38:46.166Z,12.50
2018-10-06T23:41:22.063Z,12.40
2018-10-06T23:43:58.013Z,12.30
2018-10-06T23:46:34.958Z,12.30
2018-10-06T23:49:10.764Z,12.30
2018-10-06T23:51:46.475Z,12.40
2018-10-06T23:54:22.256Z,12.30
2018-10-06T23:56:57.880Z,12.20
2018-10-06T23:59:34.601Z,12.10
